Weather observations for the past three days for
Harrison, Boone County Airport
Imperial (Metric)
Date Time (cdt) Wind (mph) Vis. (mi.) Weather Sky Cond. Temperature (ºF) Relative Humidity Wind Chill (°F) Heat Index (°F) Pressure Precipitation (in)
Air Dwpt 6 hour altimeter (in) sea level (mb) 1 hr 3 hr 6 hr
Max. Min.
09 05:53 W 6 10.00 Fair CLR 57.9 52 81% 29.83 1009.1
09 04:53 NW 5 10.00 Fair CLR 57.9 51.1 78% 29.83 1009.1
09 03:53 W 7 10.00 Fair CLR 60.1 51.1 72% 29.84 1009.3
09 02:53 W 7 10.00 Fair CLR 60.1 51.1 72% 29.85 1009.5
09 01:53 W 5 10.00 Fair CLR 59 50 72% 29.84 1009.4
09 00:53 W 3 10.00 Fair CLR 61 48.9 73.9 61 65% 29.85 1009.7
08 23:53 NW 7 10.00 A Few Clouds FEW090 63 48.9 60% 29.86 1010.0
08 22:53 SW 6 G 22 10.00 Fair CLR 66.9 48 51% 29.82 1008.7
08 21:53 SW 12 G 25 10.00 Partly Cloudy FEW090 SCT110 69.1 46 44% 29.78 1007.3
08 20:53 SW 15 G 28 10.00 Partly Cloudy SCT095 68 53.1 59% 29.82 1008.8
08 19:53 S 3 10.00 Fair CLR 70 53.1 55% 29.8 1008.5
08 18:53 Calm 10.00 Overcast OVC100 73.9 53.1 78.1 73.9 48% 29.8 1008.2
08 17:53 S 10 10.00 Fair CLR 75.9 50 40% 78 29.79 1007.9
08 16:53 S 12 G 18 10.00 Fair CLR 77 50 39% 78 29.79 1008.1
08 15:53 S 12 G 21 10.00 Fair CLR 78.1 48.9 36% 79 29.81 1008.5
08 14:53 S 9 G 17 10.00 Fair CLR 78.1 48.9 36% 79 29.84 1009.5
08 13:53 Vrbl 7 G 18 10.00 Fair CLR 75.9 50 40% 78 29.86 1010.3
08 12:53 S 10 G 18 10.00 Fair CLR 75 51.1 75 46.9 43% 78 29.89 1011.2
08 11:53 Vrbl 7 10.00 Fair CLR 73 50 44% 29.92 1012.4
08 10:53 Vrbl 7 10.00 Fair CLR 70 50 49% 29.95 1013.3
08 09:53 S 10 10.00 Fair CLR 68 51.1 55% 29.95 1013.5
08 08:53 SE 8 10.00 Fair CLR 60.1 50 70% 29.97 1014.3
08 07:53 SE 7 10.00 Fair CLR 52 45 77% 29.98 1014.6
08 06:53 SE 6 10.00 Fair CLR 46.9 43 54 45 86% 45 29.97 1014.2
08 05:53 E 6 10.00 Fair CLR 46 42.1 86% 44 29.95 1013.8
08 04:53 SE 3 10.00 Fair CLR 46.9 43 86% 29.95 1013.5
08 03:53 SE 3 10.00 Fair CLR 48 43 83% 29.95 1013.7
08 02:53 SE 3 10.00 Fair CLR 48 43 83% 29.96 1013.9
08 01:53 E 3 10.00 Fair CLR 50 43 77% 29.99 1014.8
08 00:53 Calm 10.00 Fair CLR 53.1 42.1 66 52 66% 30 1015.2
07 23:53 Calm 10.00 Fair CLR 54 42.1 64% 30 1015.2
07 22:53 Calm 10.00 Fair CLR 54 42.1 64% 30 1015.4
07 21:53 Calm 10.00 Fair CLR 55 43 64% 29.99 1015.2
07 20:53 S 3 10.00 Fair CLR 54 44.1 69% 29.97 1014.6
07 19:53 Calm 10.00 Fair CLR 62.1 42.1 48% 29.96 1014.2
07 18:53 S 3 10.00 Fair CLR 66 39 69.1 64.9 37% 29.97 1014.4
07 17:53 W 8 10.00 Fair CLR 68 39 35% 29.97 1014.6
07 16:53 W 7 10.00 Fair CLR 68 39 35% 29.98 1014.8
07 15:53 Calm 10.00 Fair CLR 68 37.9 33% 29.99 1015.3
07 14:53 Vrbl 3 10.00 Fair CLR 68 39 35% 30.02 1015.9
07 13:53 W 8 10.00 Fair CLR 66 37.9 36% 30.03 1016.5
07 12:53 W 9 10.00 Fair CLR 64.9 37 64.9 43 36% 30.06 1017.3
07 11:53 SW 5 10.00 NULL NULL 63 36 37% 30.08 1018.2
07 10:53 Vrbl 7 10.00 Fair CLR 61 36 39% 30.1 1018.9
07 09:53 SE 5 10.00 Fair CLR 57 35.1 44% 30.1 1019.1
07 08:53 SE 5 10.00 Fair CLR 54 36 51% 30.11 1019.2
07 07:53 Calm 10.00 Fair CLR 50 41 71% 30.1 1018.9
07 06:53 W 3 10.00 A Few Clouds FEW100 43 37 46.9 39.9 80% 30.09 1018.6
07 05:53 W 5 10.00 Fair CLR 41 36 82% 38 30.08 1018.4
07 04:53 W 6 10.00 Fair CLR 41 36 82% 38 30.08 1018.5
07 03:53 W 3 10.00 Fair CLR 41 37.9 89% 30.06 1017.6
07 02:53 W 6 10.00 Fair CLR 45 37.9 77% 42 30.07 1018.1
07 01:53 NW 3 10.00 Fair CLR 45 39 80% 30.07 1018.1
07 00:53 NW 5 10.00 Fair CLR 46 41 60.1 45 83% 44 30.07 1018.2
06 23:53 NW 3 10.00 Fair CLR 48 43 83% 30.05 1017.5
06 22:53 NW 6 10.00 Fair CLR 46 44.1 93% 44 30.04 1017.4
06 21:53 Calm 10.00 Fair CLR 48.9 44.1 83% 30.04 1017.0
06 20:53 Calm 10.00 A Few Clouds FEW120 51.1 45 80% 30.02 1016.6
06 19:53 Calm 10.00 Mostly Cloudy SCT050 BKN120 55.9 46.9 72% 30.01 1016.1
06 18:53 Calm 10.00 Fair CLR 59 42.1 63 55.9 54% 30.01 1015.9
06 17:53 N 8 10.00 Partly Cloudy SCT120 59 41 51% 29.98 1014.8
06 16:53 N 7 10.00 Mostly Cloudy BKN120 57.9 39.9 51% 29.98 1015.1
06 15:53 N 9 10.00 Partly Cloudy SCT039 61 42.1 50% 29.99 1015.4
06 14:53 E 7 10.00 A Few Clouds FEW041 FEW049 59 39.9 49% 30.02 1016.3
06 07:53 N 5 10.00 Overcast FEW008 OVC043 46.9 43 86% 45 30.02 1016.5
06 06:53 NW 6 10.00 Overcast OVC039 46 42.1 46.9 45 86% 44 29.99 1015.6 0.01
Date Time (cdt) Wind (mph) Vis. (mi.) Weather Sky Cond. Air Dwpt Max. Min. Relative Humidity Wind Chill (°F) Heat Index (°F) altimeter (in) sea level (mb) 1 hr 3 hr 6 hr
6 hour
Temperature (ºF) Pressure Precipitation (in)